Track Крылов Дмитрий

Time Latitude Longitude Accuracy (66% radius in meters) Altitude (meters) Speed (km/hour) Bearing (degrees) Battery (%) GPS flag
10:11:26 60.370869 29.556309 6 72.087367162988 0.15221258997917 32.829692840576 84 1 delete
10:11:11 60.370851 29.556298 8 71.845349589328 0.035759627819061 32.829692840576 84 1 delete
10:11:08 60.370851 29.556268 8 71.841856843923 0.026115300133824 32.829692840576 84 1 delete
10:10:59 60.370865 29.556173 8 71.789375130817 0.021384581923485 32.829692840576 84 1 delete
10:10:56 60.370879 29.556165 8 71.814797622521 0.020744444802403 32.829692840576 84 1 delete
10:10:50 60.370910 29.556287 12 71.977627182509 0.034221813082695 32.829692840576 84 1 delete
10:10:47 60.370905 29.556310 8 72.078990300989 0.063203938305378 32.829692840576 84 1 delete
10:10:38 60.370886 29.556337 6 72.55601671243 0.40019810199738 187.61418151855 84 1 delete
10:10:29 60.370906 29.556395 6 75.147549840791 0.028147967532277 314.44506835938 84 1 delete
10:10:26 60.370915 29.556414 6 75.41059287228 0.068755425512791 260.5491027832 84 1 delete
10:10:11 60.370920 29.556416 6 76.205274096974 0.025372255593538 243.34715270996 84 1 delete
10:10:02 60.370924 29.556429 6 76.423874843621 0.017544062808156 243.34715270996 84 1 delete
10:09:50 60.370946 29.556451 6 76.633756410732 0.027741285040975 243.34715270996 84 1 delete
10:09:38 60.370950 29.556442 6 76.851937767621 0.036239184439182 243.34715270996 84 1 delete
10:09:26 60.370950 29.556442 6 77.136872782955 0.036878827959299 243.34715270996 84 1 delete
10:09:17 60.370933 29.556419 6 77.380332672664 0.025239488109946 243.34715270996 84 1 delete
10:09:05 60.370933 29.556401 6 78.192934245774 0.024973474442959 243.34715270996 84 1 delete
10:08:53 60.370948 29.556403 6 78.307652619801 0.11535350233316 243.34715270996 84 1 delete
10:08:41 60.370938 29.556405 6 78.556422087176 0.014036111533642 243.34715270996 84 1 delete
10:08:29 60.370923 29.556376 6 78.549025122932 0.033925041556358 243.34715270996 84 1 delete
10:08:20 60.370935 29.556378 6 78.767942366606 0.015809470787644 243.34715270996 84 1 delete
10:08:17 60.370952 29.556390 6 78.80664556894 0.02000729367137 243.34715270996 84 1 delete
10:08:08 60.370996 29.556460 8 78.957221493176 0.044600367546082 243.34715270996 84 1 delete
10:07:56 60.370993 29.556450 6 79.16250592098 0.049170546233654 243.34715270996 84 1 delete
10:07:47 60.370980 29.556375 6 79.296177713431 0.066846117377281 243.34715270996 84 1 delete
10:07:35 60.370984 29.556281 6 81.377299657864 0.13967935740948 243.34715270996 84 1 delete
10:07:29 60.370967 29.556332 6 81.872836551885 0.051857084035873 243.34715270996 84 1 delete
10:07:23 60.370949 29.556424 6 83.55367216872 0.06472697108984 302.67190551758 84 1 delete
10:07:11 60.370927 29.556506 8 84.046144977218 0 302.67190551758 84 1 delete
10:06:59 60.370927 29.556506 12 84.468919942019 0 302.67190551758 84 1 delete
10:06:47 60.370927 29.556506 8 84.804508809299 0 302.67190551758 84 1 delete
10:06:35 60.370927 29.556506 6 85.377542753709 0 302.67190551758 84 1 delete
10:06:23 60.370927 29.556506 8 85.640471472069 0 302.67190551758 84 1 delete
10:06:14 60.370927 29.556506 8 85.896314228804 0 302.67190551758 84 1 delete
10:06:02 60.370927 29.556506 8 86.399411479882 0 302.67190551758 84 1 delete
10:05:50 60.370927 29.556506 6 86.568865939443 0 302.67190551758 84 1 delete
10:05:38 60.370927 29.556506 4 86.548527479462 0 302.67190551758 84 1 delete
10:05:29 60.370927 29.556506 6 86.063284718477 0 302.67190551758 84 1 delete
10:05:17 60.370927 29.556506 6 85.265034886769 0 302.67190551758 84 1 delete
10:05:05 60.370927 29.556506 6 84.541732896129 0 302.67190551758 84 1 delete
10:04:53 60.370927 29.556506 12 84.030550136948 0 302.67190551758 84 1 delete
10:04:41 60.370927 29.556506 6 83.65993416004 0 302.67190551758 84 1 delete
10:04:29 60.370927 29.556506 8 83.314880353823 0 302.67190551758 84 1 delete
10:04:20 60.370927 29.556506 6 83.143513290333 0 302.67190551758 84 1 delete
10:04:08 60.370927 29.556506 6 83.147008649677 0 302.67190551758 84 1 delete
10:03:56 60.370927 29.556506 6 82.90868104515 0 302.67190551758 84 1 delete
10:03:44 60.370927 29.556506 8 82.487471436037 0 302.67190551758 84 1 delete
10:03:35 60.370927 29.556506 12 82.351933461692 0 302.67190551758 84 1 delete
10:03:23 60.370927 29.556506 12 82.542964653278 0 302.67190551758 84 1 delete
10:03:11 60.370927 29.556506 8 82.69364793065 0 302.67190551758 88 1 delete